sensor_id;sensor_type;location;lat;lon;timestamp;temperature;humidity
43346;DHT22;28937;51.160;4.146;2023-10-31T00:02:01;15.40;99.90
43346;DHT22;28937;51.160;4.146;2023-10-31T00:04:27;15.30;99.90
43346;DHT22;28937;51.160;4.146;2023-10-31T00:06:52;15.30;99.90
43346;DHT22;28937;51.160;4.146;2023-10-31T00:09:18;15.40;99.90
43346;DHT22;28937;51.160;4.146;2023-10-31T00:11:44;15.30;99.90
43346;DHT22;28937;51.160;4.146;2023-10-31T00:14:09;15.30;99.90
43346;DHT22;28937;51.160;4.146;2023-10-31T00:16:35;15.40;99.90
43346;DHT22;28937;51.160;4.146;2023-10-31T00:19:01;15.30;99.90
43346;DHT22;28937;51.160;4.146;2023-10-31T00:21:26;15.30;99.90
43346;DHT22;28937;51.160;4.146;2023-10-31T00:23:52;15.30;99.90
43346;DHT22;28937;51.160;4.146;2023-10-31T00:26:17;15.30;99.90
43346;DHT22;28937;51.160;4.146;2023-10-31T00:28:43;15.30;99.90
43346;DHT22;28937;51.160;4.146;2023-10-31T00:31:09;15.30;99.90
43346;DHT22;28937;51.160;4.146;2023-10-31T00:33:37;15.30;99.90
43346;DHT22;28937;51.160;4.146;2023-10-31T00:36:03;15.30;99.90
43346;DHT22;28937;51.160;4.146;2023-10-31T00:38:29;15.30;99.90
43346;DHT22;28937;51.160;4.146;2023-10-31T00:40:55;15.30;99.90
43346;DHT22;28937;51.160;4.146;2023-10-31T00:43:20;15.30;99.90
43346;DHT22;28937;51.160;4.146;2023-10-31T00:45:46;15.30;99.90
43346;DHT22;28937;51.160;4.146;2023-10-31T00:48:12;15.30;99.90
43346;DHT22;28937;51.160;4.146;2023-10-31T00:50:37;15.30;99.90
43346;DHT22;28937;51.160;4.146;2023-10-31T00:53:03;15.30;99.90
43346;DHT22;28937;51.160;4.146;2023-10-31T00:55:28;15.30;99.90
43346;DHT22;28937;51.160;4.146;2023-10-31T00:57:54;15.20;99.90
43346;DHT22;28937;51.160;4.146;2023-10-31T01:00:20;15.30;99.90
43346;DHT22;28937;51.160;4.146;2023-10-31T01:02:45;15.30;99.90
43346;DHT22;28937;51.160;4.146;2023-10-31T01:05:11;15.30;99.90
43346;DHT22;28937;51.160;4.146;2023-10-31T01:07:37;15.30;99.90
43346;DHT22;28937;51.160;4.146;2023-10-31T01:10:03;15.20;99.90
43346;DHT22;28937;51.160;4.146;2023-10-31T01:12:30;15.30;99.90
43346;DHT22;28937;51.160;4.146;2023-10-31T01:14:56;15.30;99.90
43346;DHT22;28937;51.160;4.146;2023-10-31T01:17:22;15.20;99.90
43346;DHT22;28937;51.160;4.146;2023-10-31T01:19:48;15.20;99.90
43346;DHT22;28937;51.160;4.146;2023-10-31T01:22:13;15.30;99.90
43346;DHT22;28937;51.160;4.146;2023-10-31T01:24:39;15.20;99.90
43346;DHT22;28937;51.160;4.146;2023-10-31T01:27:05;15.20;99.90
43346;DHT22;28937;51.160;4.146;2023-10-31T01:29:30;15.30;99.90
43346;DHT22;28937;51.160;4.146;2023-10-31T01:31:56;15.20;99.90
43346;DHT22;28937;51.160;4.146;2023-10-31T01:34:22;15.20;99.90
43346;DHT22;28937;51.160;4.146;2023-10-31T01:36:48;15.20;99.90
43346;DHT22;28937;51.160;4.146;2023-10-31T01:39:13;15.20;99.90
43346;DHT22;28937;51.160;4.146;2023-10-31T01:41:42;15.20;99.90
43346;DHT22;28937;51.160;4.146;2023-10-31T01:44:09;15.20;99.90
43346;DHT22;28937;51.160;4.146;2023-10-31T01:46:34;15.20;99.90
43346;DHT22;28937;51.160;4.146;2023-10-31T01:49:00;15.20;99.90
43346;DHT22;28937;51.160;4.146;2023-10-31T01:51:27;15.20;99.90
43346;DHT22;28937;51.160;4.146;2023-10-31T01:53:53;15.20;99.90
43346;DHT22;28937;51.160;4.146;2023-10-31T01:56:20;15.20;99.90
43346;DHT22;28937;51.160;4.146;2023-10-31T01:58:47;15.20;99.90
43346;DHT22;28937;51.160;4.146;2023-10-31T02:01:13;15.10;99.90
43346;DHT22;28937;51.160;4.146;2023-10-31T02:03:39;15.10;99.90
43346;DHT22;28937;51.160;4.146;2023-10-31T02:06:04;15.10;99.90
43346;DHT22;28937;51.160;4.146;2023-10-31T02:08:30;15.10;99.90
43346;DHT22;28937;51.160;4.146;2023-10-31T02:10:56;15.10;99.90
43346;DHT22;28937;51.160;4.146;2023-10-31T02:13:22;15.10;99.90
43346;DHT22;28937;51.160;4.146;2023-10-31T02:15:48;15.10;99.90
43346;DHT22;28937;51.160;4.146;2023-10-31T02:18:14;15.00;99.90
43346;DHT22;28937;51.160;4.146;2023-10-31T02:20:40;15.10;99.90
43346;DHT22;28937;51.160;4.146;2023-10-31T02:23:06;15.00;99.90
43346;DHT22;28937;51.160;4.146;2023-10-31T02:25:31;15.10;99.90
43346;DHT22;28937;51.160;4.146;2023-10-31T02:27:57;15.10;99.90
43346;DHT22;28937;51.160;4.146;2023-10-31T02:30:24;15.10;99.90
43346;DHT22;28937;51.160;4.146;2023-10-31T02:32:49;15.10;99.90
43346;DHT22;28937;51.160;4.146;2023-10-31T02:35:16;15.10;99.90
43346;DHT22;28937;51.160;4.146;2023-10-31T02:37:43;15.10;99.90
43346;DHT22;28937;51.160;4.146;2023-10-31T02:40:09;15.10;99.90
43346;DHT22;28937;51.160;4.146;2023-10-31T02:42:35;15.10;99.90
43346;DHT22;28937;51.160;4.146;2023-10-31T02:45:01;15.00;99.90
43346;DHT22;28937;51.160;4.146;2023-10-31T02:47:27;15.00;99.90
43346;DHT22;28937;51.160;4.146;2023-10-31T02:49:52;15.10;99.90
43346;DHT22;28937;51.160;4.146;2023-10-31T02:52:18;15.10;99.90
43346;DHT22;28937;51.160;4.146;2023-10-31T02:54:44;15.00;99.90
43346;DHT22;28937;51.160;4.146;2023-10-31T02:57:09;14.90;99.90
43346;DHT22;28937;51.160;4.146;2023-10-31T02:59:35;14.90;99.90
43346;DHT22;28937;51.160;4.146;2023-10-31T03:02:01;14.90;99.90
43346;DHT22;28937;51.160;4.146;2023-10-31T03:04:26;14.90;99.90
43346;DHT22;28937;51.160;4.146;2023-10-31T03:06:52;14.90;99.90
43346;DHT22;28937;51.160;4.146;2023-10-31T03:09:17;14.90;99.90
43346;DHT22;28937;51.160;4.146;2023-10-31T03:11:43;14.90;99.90
43346;DHT22;28937;51.160;4.146;2023-10-31T03:14:08;14.80;99.90
43346;DHT22;28937;51.160;4.146;2023-10-31T03:16:34;14.90;99.90
43346;DHT22;28937;51.160;4.146;2023-10-31T03:18:59;14.90;99.90
43346;DHT22;28937;51.160;4.146;2023-10-31T03:21:25;14.80;99.90
43346;DHT22;28937;51.160;4.146;2023-10-31T03:23:51;14.80;99.90
43346;DHT22;28937;51.160;4.146;2023-10-31T03:26:19;14.90;99.90
43346;DHT22;28937;51.160;4.146;2023-10-31T03:28:45;14.80;99.90
43346;DHT22;28937;51.160;4.146;2023-10-31T03:31:12;14.80;99.90
43346;DHT22;28937;51.160;4.146;2023-10-31T03:33:37;14.90;99.90
43346;DHT22;28937;51.160;4.146;2023-10-31T03:36:04;14.90;99.90
43346;DHT22;28937;51.160;4.146;2023-10-31T03:38:30;14.80;99.90
43346;DHT22;28937;51.160;4.146;2023-10-31T03:40:56;14.90;99.90
43346;DHT22;28937;51.160;4.146;2023-10-31T03:43:22;14.90;99.90
43346;DHT22;28937;51.160;4.146;2023-10-31T03:45:47;14.90;99.90
43346;DHT22;28937;51.160;4.146;2023-10-31T03:48:13;14.80;99.90
43346;DHT22;28937;51.160;4.146;2023-10-31T03:50:39;14.80;99.90
43346;DHT22;28937;51.160;4.146;2023-10-31T03:53:04;14.80;99.90
43346;DHT22;28937;51.160;4.146;2023-10-31T03:55:30;14.70;99.90
43346;DHT22;28937;51.160;4.146;2023-10-31T03:57:56;14.70;99.90
43346;DHT22;28937;51.160;4.146;2023-10-31T04:00:21;14.80;99.90
43346;DHT22;28937;51.160;4.146;2023-10-31T04:02:47;14.80;99.90
43346;DHT22;28937;51.160;4.146;2023-10-31T04:05:12;14.80;99.90
43346;DHT22;28937;51.160;4.146;2023-10-31T04:07:38;14.80;99.90
43346;DHT22;28937;51.160;4.146;2023-10-31T04:10:04;14.70;99.90
43346;DHT22;28937;51.160;4.146;2023-10-31T04:12:30;14.70;99.90
43346;DHT22;28937;51.160;4.146;2023-10-31T04:14:56;14.70;99.90
43346;DHT22;28937;51.160;4.146;2023-10-31T04:17:22;14.70;99.90
43346;DHT22;28937;51.160;4.146;2023-10-31T04:19:47;14.70;99.90
43346;DHT22;28937;51.160;4.146;2023-10-31T04:22:13;14.60;99.90
43346;DHT22;28937;51.160;4.146;2023-10-31T04:24:38;14.70;99.90
43346;DHT22;28937;51.160;4.146;2023-10-31T04:27:04;14.70;99.90
43346;DHT22;28937;51.160;4.146;2023-10-31T04:29:29;14.70;99.90
43346;DHT22;28937;51.160;4.146;2023-10-31T04:31:55;14.70;99.90
43346;DHT22;28937;51.160;4.146;2023-10-31T04:34:21;14.60;99.90
43346;DHT22;28937;51.160;4.146;2023-10-31T04:36:46;14.60;99.90
43346;DHT22;28937;51.160;4.146;2023-10-31T04:39:12;14.60;99.90
43346;DHT22;28937;51.160;4.146;2023-10-31T04:41:37;14.70;99.90
43346;DHT22;28937;51.160;4.146;2023-10-31T04:44:03;14.60;99.90
43346;DHT22;28937;51.160;4.146;2023-10-31T04:46:28;14.60;99.90
43346;DHT22;28937;51.160;4.146;2023-10-31T04:48:54;14.60;99.90
43346;DHT22;28937;51.160;4.146;2023-10-31T04:51:19;14.60;99.90
43346;DHT22;28937;51.160;4.146;2023-10-31T04:53:45;14.60;99.90
43346;DHT22;28937;51.160;4.146;2023-10-31T04:56:14;14.60;99.90
43346;DHT22;28937;51.160;4.146;2023-10-31T04:58:43;14.60;99.90
43346;DHT22;28937;51.160;4.146;2023-10-31T05:01:10;14.60;99.90
43346;DHT22;28937;51.160;4.146;2023-10-31T05:03:36;14.60;99.90
43346;DHT22;28937;51.160;4.146;2023-10-31T05:06:02;14.60;99.90
43346;DHT22;28937;51.160;4.146;2023-10-31T05:08:29;14.60;99.90
43346;DHT22;28937;51.160;4.146;2023-10-31T05:10:54;14.60;99.90
43346;DHT22;28937;51.160;4.146;2023-10-31T05:13:20;14.60;99.90
43346;DHT22;28937;51.160;4.146;2023-10-31T05:15:45;14.60;99.90
43346;DHT22;28937;51.160;4.146;2023-10-31T05:18:11;14.60;99.90
43346;DHT22;28937;51.160;4.146;2023-10-31T05:20:36;14.60;99.90
43346;DHT22;28937;51.160;4.146;2023-10-31T05:23:02;14.60;99.90
43346;DHT22;28937;51.160;4.146;2023-10-31T05:25:28;14.50;99.90
43346;DHT22;28937;51.160;4.146;2023-10-31T05:27:54;14.50;99.90
43346;DHT22;28937;51.160;4.146;2023-10-31T05:30:19;14.50;99.90
43346;DHT22;28937;51.160;4.146;2023-10-31T05:32:45;14.50;99.90
43346;DHT22;28937;51.160;4.146;2023-10-31T05:35:10;14.50;99.90
43346;DHT22;28937;51.160;4.146;2023-10-31T05:37:36;14.50;99.90
43346;DHT22;28937;51.160;4.146;2023-10-31T05:40:02;14.50;99.90
43346;DHT22;28937;51.160;4.146;2023-10-31T05:42:28;14.40;99.90
43346;DHT22;28937;51.160;4.146;2023-10-31T05:44:54;14.50;99.90
43346;DHT22;28937;51.160;4.146;2023-10-31T05:47:20;14.40;99.90
43346;DHT22;28937;51.160;4.146;2023-10-31T05:49:46;14.40;99.90
43346;DHT22;28937;51.160;4.146;2023-10-31T05:52:11;14.40;99.90
43346;DHT22;28937;51.160;4.146;2023-10-31T05:54:37;14.40;99.90
43346;DHT22;28937;51.160;4.146;2023-10-31T05:57:03;14.40;99.90
43346;DHT22;28937;51.160;4.146;2023-10-31T05:59:28;14.40;99.90
43346;DHT22;28937;51.160;4.146;2023-10-31T06:01:54;14.40;99.90
43346;DHT22;28937;51.160;4.146;2023-10-31T06:04:19;14.30;99.90
43346;DHT22;28937;51.160;4.146;2023-10-31T06:06:45;14.30;99.90
43346;DHT22;28937;51.160;4.146;2023-10-31T06:09:10;14.40;99.90
43346;DHT22;28937;51.160;4.146;2023-10-31T06:11:36;14.30;99.90
43346;DHT22;28937;51.160;4.146;2023-10-31T06:14:02;14.40;99.90
43346;DHT22;28937;51.160;4.146;2023-10-31T06:16:27;14.40;99.90
43346;DHT22;28937;51.160;4.146;2023-10-31T06:18:53;14.40;99.90
43346;DHT22;28937;51.160;4.146;2023-10-31T06:21:18;14.40;99.90
43346;DHT22;28937;51.160;4.146;2023-10-31T06:23:44;14.40;99.90
43346;DHT22;28937;51.160;4.146;2023-10-31T06:26:11;14.50;99.90
43346;DHT22;28937;51.160;4.146;2023-10-31T06:28:37;14.50;99.90
43346;DHT22;28937;51.160;4.146;2023-10-31T06:31:03;14.50;99.90
43346;DHT22;28937;51.160;4.146;2023-10-31T06:33:28;14.50;99.90
43346;DHT22;28937;51.160;4.146;2023-10-31T06:35:54;14.50;99.90
43346;DHT22;28937;51.160;4.146;2023-10-31T06:38:20;14.50;99.90
43346;DHT22;28937;51.160;4.146;2023-10-31T06:40:45;14.50;99.90
43346;DHT22;28937;51.160;4.146;2023-10-31T06:43:11;14.50;99.90
43346;DHT22;28937;51.160;4.146;2023-10-31T06:45:37;14.50;99.90
43346;DHT22;28937;51.160;4.146;2023-10-31T06:48:02;14.50;99.90
43346;DHT22;28937;51.160;4.146;2023-10-31T06:50:28;14.50;99.90
43346;DHT22;28937;51.160;4.146;2023-10-31T06:52:54;14.40;99.90
43346;DHT22;28937;51.160;4.146;2023-10-31T06:55:20;14.40;99.90
43346;DHT22;28937;51.160;4.146;2023-10-31T06:57:45;14.40;99.90
43346;DHT22;28937;51.160;4.146;2023-10-31T07:00:11;14.40;99.90
43346;DHT22;28937;51.160;4.146;2023-10-31T07:02:37;14.40;99.90
43346;DHT22;28937;51.160;4.146;2023-10-31T07:05:03;14.40;99.90
43346;DHT22;28937;51.160;4.146;2023-10-31T07:07:29;14.40;99.90
43346;DHT22;28937;51.160;4.146;2023-10-31T07:09:55;14.40;99.90
43346;DHT22;28937;51.160;4.146;2023-10-31T07:12:20;14.50;99.90
43346;DHT22;28937;51.160;4.146;2023-10-31T07:14:46;14.60;99.90
43346;DHT22;28937;51.160;4.146;2023-10-31T07:17:12;14.60;99.90
43346;DHT22;28937;51.160;4.146;2023-10-31T07:19:38;14.70;99.90
43346;DHT22;28937;51.160;4.146;2023-10-31T07:22:03;14.70;99.90
43346;DHT22;28937;51.160;4.146;2023-10-31T07:24:29;14.70;99.90
43346;DHT22;28937;51.160;4.146;2023-10-31T07:26:54;14.60;99.90
43346;DHT22;28937;51.160;4.146;2023-10-31T07:29:20;14.60;99.90
43346;DHT22;28937;51.160;4.146;2023-10-31T07:31:46;14.70;99.90
43346;DHT22;28937;51.160;4.146;2023-10-31T07:34:11;14.80;99.90
43346;DHT22;28937;51.160;4.146;2023-10-31T07:36:37;14.90;99.90
43346;DHT22;28937;51.160;4.146;2023-10-31T07:39:04;14.90;99.90
43346;DHT22;28937;51.160;4.146;2023-10-31T07:41:30;14.90;99.90
43346;DHT22;28937;51.160;4.146;2023-10-31T07:43:56;14.90;99.90
43346;DHT22;28937;51.160;4.146;2023-10-31T07:46:21;14.90;99.90
43346;DHT22;28937;51.160;4.146;2023-10-31T07:48:49;14.90;99.90
43346;DHT22;28937;51.160;4.146;2023-10-31T07:51:14;14.80;99.90
43346;DHT22;28937;51.160;4.146;2023-10-31T07:53:41;14.90;99.90
43346;DHT22;28937;51.160;4.146;2023-10-31T07:56:17;14.80;99.90
43346;DHT22;28937;51.160;4.146;2023-10-31T07:58:44;14.80;99.90
43346;DHT22;28937;51.160;4.146;2023-10-31T08:01:10;14.80;99.90
43346;DHT22;28937;51.160;4.146;2023-10-31T08:03:36;14.70;99.90
43346;DHT22;28937;51.160;4.146;2023-10-31T08:06:04;14.70;99.90
43346;DHT22;28937;51.160;4.146;2023-10-31T08:08:29;14.80;99.90
43346;DHT22;28937;51.160;4.146;2023-10-31T08:10:55;14.70;99.90
43346;DHT22;28937;51.160;4.146;2023-10-31T08:13:22;14.70;99.90
43346;DHT22;28937;51.160;4.146;2023-10-31T08:15:48;14.70;99.90
43346;DHT22;28937;51.160;4.146;2023-10-31T08:18:13;14.70;99.90
43346;DHT22;28937;51.160;4.146;2023-10-31T08:20:39;14.80;99.90
43346;DHT22;28937;51.160;4.146;2023-10-31T08:23:04;14.80;99.90
43346;DHT22;28937;51.160;4.146;2023-10-31T08:25:30;14.80;99.90
43346;DHT22;28937;51.160;4.146;2023-10-31T08:27:55;14.70;99.90
43346;DHT22;28937;51.160;4.146;2023-10-31T08:30:22;14.70;99.90
43346;DHT22;28937;51.160;4.146;2023-10-31T08:32:48;14.70;99.90
43346;DHT22;28937;51.160;4.146;2023-10-31T08:35:13;14.70;99.90
43346;DHT22;28937;51.160;4.146;2023-10-31T08:37:39;14.70;99.90
43346;DHT22;28937;51.160;4.146;2023-10-31T08:40:05;14.70;99.90
43346;DHT22;28937;51.160;4.146;2023-10-31T08:42:31;14.70;99.90
43346;DHT22;28937;51.160;4.146;2023-10-31T08:44:56;14.70;99.90
43346;DHT22;28937;51.160;4.146;2023-10-31T08:47:22;14.70;99.90
43346;DHT22;28937;51.160;4.146;2023-10-31T08:49:48;14.70;99.90
43346;DHT22;28937;51.160;4.146;2023-10-31T08:52:14;14.70;99.90
43346;DHT22;28937;51.160;4.146;2023-10-31T08:54:39;14.80;99.90
43346;DHT22;28937;51.160;4.146;2023-10-31T08:57:05;14.80;99.90
43346;DHT22;28937;51.160;4.146;2023-10-31T08:59:31;14.80;99.90
43346;DHT22;28937;51.160;4.146;2023-10-31T09:01:56;14.90;99.90
43346;DHT22;28937;51.160;4.146;2023-10-31T09:04:22;14.90;99.90
43346;DHT22;28937;51.160;4.146;2023-10-31T09:06:47;14.90;99.90
43346;DHT22;28937;51.160;4.146;2023-10-31T09:09:13;14.90;99.90
43346;DHT22;28937;51.160;4.146;2023-10-31T09:11:39;14.90;99.90
43346;DHT22;28937;51.160;4.146;2023-10-31T09:14:04;15.00;99.90
43346;DHT22;28937;51.160;4.146;2023-10-31T09:16:30;15.00;99.90
43346;DHT22;28937;51.160;4.146;2023-10-31T09:18:55;15.00;99.90
43346;DHT22;28937;51.160;4.146;2023-10-31T09:21:21;15.00;99.90
43346;DHT22;28937;51.160;4.146;2023-10-31T09:23:47;15.00;99.90
43346;DHT22;28937;51.160;4.146;2023-10-31T09:26:12;15.00;99.90
43346;DHT22;28937;51.160;4.146;2023-10-31T09:28:38;15.00;99.90
43346;DHT22;28937;51.160;4.146;2023-10-31T09:31:05;15.00;99.90
43346;DHT22;28937;51.160;4.146;2023-10-31T09:33:31;15.00;99.90
43346;DHT22;28937;51.160;4.146;2023-10-31T09:35:56;15.10;99.90
43346;DHT22;28937;51.160;4.146;2023-10-31T09:38:22;15.10;99.90
43346;DHT22;28937;51.160;4.146;2023-10-31T09:40:48;15.10;99.90
43346;DHT22;28937;51.160;4.146;2023-10-31T09:43:15;15.10;99.90
43346;DHT22;28937;51.160;4.146;2023-10-31T09:45:40;15.20;99.90
43346;DHT22;28937;51.160;4.146;2023-10-31T09:48:07;15.20;99.90
43346;DHT22;28937;51.160;4.146;2023-10-31T09:50:33;15.20;99.90
43346;DHT22;28937;51.160;4.146;2023-10-31T09:52:59;15.20;99.90
43346;DHT22;28937;51.160;4.146;2023-10-31T09:55:25;15.20;99.90
43346;DHT22;28937;51.160;4.146;2023-10-31T09:57:51;15.20;99.90
43346;DHT22;28937;51.160;4.146;2023-10-31T10:00:18;15.20;99.90
43346;DHT22;28937;51.160;4.146;2023-10-31T10:02:43;15.20;99.90
43346;DHT22;28937;51.160;4.146;2023-10-31T10:05:09;15.20;99.90
43346;DHT22;28937;51.160;4.146;2023-10-31T10:07:35;15.20;99.90
43346;DHT22;28937;51.160;4.146;2023-10-31T10:10:01;15.20;99.90
43346;DHT22;28937;51.160;4.146;2023-10-31T10:12:27;15.30;99.90
43346;DHT22;28937;51.160;4.146;2023-10-31T10:14:52;15.30;99.90
43346;DHT22;28937;51.160;4.146;2023-10-31T10:17:21;15.30;99.90
43346;DHT22;28937;51.160;4.146;2023-10-31T10:19:48;15.30;99.90
43346;DHT22;28937;51.160;4.146;2023-10-31T10:22:20;15.30;99.90
43346;DHT22;28937;51.160;4.146;2023-10-31T10:24:45;15.30;99.90
43346;DHT22;28937;51.160;4.146;2023-10-31T10:27:11;15.30;99.90
43346;DHT22;28937;51.160;4.146;2023-10-31T10:29:38;15.30;99.90
43346;DHT22;28937;51.160;4.146;2023-10-31T10:32:07;15.30;99.90
43346;DHT22;28937;51.160;4.146;2023-10-31T10:34:35;15.30;99.90
43346;DHT22;28937;51.160;4.146;2023-10-31T10:37:04;15.40;99.90
43346;DHT22;28937;51.160;4.146;2023-10-31T10:39:32;15.40;99.90
43346;DHT22;28937;51.160;4.146;2023-10-31T10:42:01;15.40;99.90
43346;DHT22;28937;51.160;4.146;2023-10-31T10:44:34;15.40;99.90
43346;DHT22;28937;51.160;4.146;2023-10-31T10:47:05;15.40;99.90
43346;DHT22;28937;51.160;4.146;2023-10-31T10:49:35;15.40;99.90
43346;DHT22;28937;51.160;4.146;2023-10-31T10:52:23;15.40;99.90
43346;DHT22;28937;51.160;4.146;2023-10-31T10:54:54;15.40;99.90
43346;DHT22;28937;51.160;4.146;2023-10-31T10:57:38;15.40;99.90
43346;DHT22;28937;51.160;4.146;2023-10-31T11:00:08;15.40;99.90
43346;DHT22;28937;51.160;4.146;2023-10-31T11:02:38;15.40;99.90
43346;DHT22;28937;51.160;4.146;2023-10-31T11:05:05;15.40;99.90
43346;DHT22;28937;51.160;4.146;2023-10-31T11:07:37;15.40;99.90
43346;DHT22;28937;51.160;4.146;2023-10-31T11:10:04;15.40;99.90
43346;DHT22;28937;51.160;4.146;2023-10-31T11:12:30;15.50;99.90
43346;DHT22;28937;51.160;4.146;2023-10-31T11:15:01;15.50;99.90
43346;DHT22;28937;51.160;4.146;2023-10-31T11:17:31;15.50;99.90
43346;DHT22;28937;51.160;4.146;2023-10-31T11:20:00;15.50;99.90
43346;DHT22;28937;51.160;4.146;2023-10-31T11:22:39;15.50;99.90
43346;DHT22;28937;51.160;4.146;2023-10-31T11:25:08;15.60;99.90
43346;DHT22;28937;51.160;4.146;2023-10-31T11:27:34;15.60;99.90
43346;DHT22;28937;51.160;4.146;2023-10-31T11:30:26;15.60;99.90
43346;DHT22;28937;51.160;4.146;2023-10-31T11:32:54;15.60;99.90
43346;DHT22;28937;51.160;4.146;2023-10-31T11:35:21;15.60;99.90
43346;DHT22;28937;51.160;4.146;2023-10-31T11:37:49;15.60;99.90
43346;DHT22;28937;51.160;4.146;2023-10-31T11:40:22;15.70;99.90
43346;DHT22;28937;51.160;4.146;2023-10-31T11:42:50;15.70;99.90
43346;DHT22;28937;51.160;4.146;2023-10-31T11:45:26;15.70;99.90
43346;DHT22;28937;51.160;4.146;2023-10-31T11:47:53;15.60;99.90
43346;DHT22;28937;51.160;4.146;2023-10-31T11:50:18;15.60;99.90
43346;DHT22;28937;51.160;4.146;2023-10-31T11:52:44;15.60;99.90
43346;DHT22;28937;51.160;4.146;2023-10-31T11:55:11;15.60;99.90
43346;DHT22;28937;51.160;4.146;2023-10-31T11:57:40;15.60;99.90
43346;DHT22;28937;51.160;4.146;2023-10-31T12:00:06;15.60;99.90
43346;DHT22;28937;51.160;4.146;2023-10-31T12:02:35;15.60;99.90
43346;DHT22;28937;51.160;4.146;2023-10-31T12:05:11;15.60;99.90
43346;DHT22;28937;51.160;4.146;2023-10-31T12:07:44;15.60;99.90
43346;DHT22;28937;51.160;4.146;2023-10-31T12:10:10;15.70;99.90
43346;DHT22;28937;51.160;4.146;2023-10-31T12:12:35;15.70;99.90
43346;DHT22;28937;51.160;4.146;2023-10-31T12:15:08;15.70;99.90
43346;DHT22;28937;51.160;4.146;2023-10-31T12:17:35;15.70;99.90
43346;DHT22;28937;51.160;4.146;2023-10-31T12:20:07;15.70;99.90
43346;DHT22;28937;51.160;4.146;2023-10-31T12:22:36;15.70;99.90
43346;DHT22;28937;51.160;4.146;2023-10-31T12:25:03;15.70;99.90
43346;DHT22;28937;51.160;4.146;2023-10-31T12:27:49;15.80;99.90
43346;DHT22;28937;51.160;4.146;2023-10-31T12:30:20;15.70;99.90
43346;DHT22;28937;51.160;4.146;2023-10-31T12:32:53;15.70;99.90
43346;DHT22;28937;51.160;4.146;2023-10-31T12:35:21;15.70;99.90
43346;DHT22;28937;51.160;4.146;2023-10-31T12:37:48;15.70;99.90
43346;DHT22;28937;51.160;4.146;2023-10-31T12:40:18;15.70;99.90
43346;DHT22;28937;51.160;4.146;2023-10-31T12:42:44;15.80;99.90
43346;DHT22;28937;51.160;4.146;2023-10-31T12:45:15;15.70;99.90
43346;DHT22;28937;51.160;4.146;2023-10-31T12:47:43;15.70;99.90
43346;DHT22;28937;51.160;4.146;2023-10-31T12:50:16;15.70;99.90
43346;DHT22;28937;51.160;4.146;2023-10-31T12:55:17;15.70;99.90
43346;DHT22;28937;51.160;4.146;2023-10-31T12:57:43;15.70;99.90
43346;DHT22;28937;51.160;4.146;2023-10-31T13:00:11;15.70;99.90
43346;DHT22;28937;51.160;4.146;2023-10-31T13:02:39;15.80;99.90
43346;DHT22;28937;51.160;4.146;2023-10-31T13:05:12;15.80;99.90
43346;DHT22;28937;51.160;4.146;2023-10-31T13:07:38;15.80;99.90
43346;DHT22;28937;51.160;4.146;2023-10-31T13:10:06;15.90;99.90
43346;DHT22;28937;51.160;4.146;2023-10-31T13:12:33;15.90;99.90
43346;DHT22;28937;51.160;4.146;2023-10-31T13:14:58;16.00;99.90
43346;DHT22;28937;51.160;4.146;2023-10-31T13:17:24;15.90;99.90
43346;DHT22;28937;51.160;4.146;2023-10-31T13:19:49;15.90;99.90
43346;DHT22;28937;51.160;4.146;2023-10-31T13:22:15;15.90;99.90
43346;DHT22;28937;51.160;4.146;2023-10-31T13:24:41;15.80;99.90
43346;DHT22;28937;51.160;4.146;2023-10-31T13:27:08;15.80;99.90
43346;DHT22;28937;51.160;4.146;2023-10-31T13:29:34;15.80;99.90
43346;DHT22;28937;51.160;4.146;2023-10-31T13:31:59;15.80;99.90
43346;DHT22;28937;51.160;4.146;2023-10-31T13:34:25;15.80;99.90
43346;DHT22;28937;51.160;4.146;2023-10-31T13:36:50;15.80;99.90
43346;DHT22;28937;51.160;4.146;2023-10-31T13:39:17;15.80;99.90
43346;DHT22;28937;51.160;4.146;2023-10-31T13:41:43;15.80;99.90
43346;DHT22;28937;51.160;4.146;2023-10-31T13:44:08;15.80;99.90
43346;DHT22;28937;51.160;4.146;2023-10-31T13:46:34;15.80;99.90
43346;DHT22;28937;51.160;4.146;2023-10-31T13:49:00;15.80;99.90
43346;DHT22;28937;51.160;4.146;2023-10-31T13:51:25;15.80;99.90
43346;DHT22;28937;51.160;4.146;2023-10-31T13:53:51;15.90;99.90
43346;DHT22;28937;51.160;4.146;2023-10-31T13:56:17;15.90;99.90
43346;DHT22;28937;51.160;4.146;2023-10-31T13:58:42;16.00;99.90
43346;DHT22;28937;51.160;4.146;2023-10-31T14:01:08;16.00;99.90
43346;DHT22;28937;51.160;4.146;2023-10-31T14:03:33;16.10;99.90
43346;DHT22;28937;51.160;4.146;2023-10-31T14:05:59;16.10;99.90
43346;DHT22;28937;51.160;4.146;2023-10-31T14:08:25;16.20;99.90
43346;DHT22;28937;51.160;4.146;2023-10-31T14:10:50;16.20;99.90
43346;DHT22;28937;51.160;4.146;2023-10-31T14:13:17;16.20;99.90
43346;DHT22;28937;51.160;4.146;2023-10-31T14:15:42;16.30;99.90
43346;DHT22;28937;51.160;4.146;2023-10-31T14:18:08;16.30;99.90
43346;DHT22;28937;51.160;4.146;2023-10-31T14:20:33;16.40;99.90
43346;DHT22;28937;51.160;4.146;2023-10-31T14:22:59;16.40;99.90
43346;DHT22;28937;51.160;4.146;2023-10-31T14:25:24;16.40;99.90
43346;DHT22;28937;51.160;4.146;2023-10-31T14:27:50;16.40;99.90
43346;DHT22;28937;51.160;4.146;2023-10-31T14:30:15;16.30;99.90
43346;DHT22;28937;51.160;4.146;2023-10-31T14:32:41;16.30;99.90
43346;DHT22;28937;51.160;4.146;2023-10-31T14:35:07;16.30;99.90
43346;DHT22;28937;51.160;4.146;2023-10-31T14:37:33;16.20;99.90
43346;DHT22;28937;51.160;4.146;2023-10-31T14:40:00;16.20;99.90
43346;DHT22;28937;51.160;4.146;2023-10-31T14:42:26;16.20;99.90
43346;DHT22;28937;51.160;4.146;2023-10-31T14:44:51;16.20;99.90
43346;DHT22;28937;51.160;4.146;2023-10-31T14:47:17;16.20;99.90
43346;DHT22;28937;51.160;4.146;2023-10-31T14:49:44;16.20;99.90
43346;DHT22;28937;51.160;4.146;2023-10-31T14:52:10;16.20;99.90
43346;DHT22;28937;51.160;4.146;2023-10-31T14:54:35;16.20;99.90
43346;DHT22;28937;51.160;4.146;2023-10-31T14:57:02;16.20;99.90
43346;DHT22;28937;51.160;4.146;2023-10-31T14:59:28;16.20;99.90
43346;DHT22;28937;51.160;4.146;2023-10-31T15:01:53;16.20;99.90
43346;DHT22;28937;51.160;4.146;2023-10-31T15:04:19;16.20;99.90
43346;DHT22;28937;51.160;4.146;2023-10-31T15:06:45;16.10;99.90
43346;DHT22;28937;51.160;4.146;2023-10-31T15:09:10;16.20;99.90
43346;DHT22;28937;51.160;4.146;2023-10-31T15:11:36;16.10;99.90
43346;DHT22;28937;51.160;4.146;2023-10-31T15:14:02;16.10;99.90
43346;DHT22;28937;51.160;4.146;2023-10-31T15:16:28;16.20;99.90
43346;DHT22;28937;51.160;4.146;2023-10-31T15:18:54;16.20;99.90
43346;DHT22;28937;51.160;4.146;2023-10-31T15:21:20;16.10;99.90
43346;DHT22;28937;51.160;4.146;2023-10-31T15:23:46;16.10;99.90
43346;DHT22;28937;51.160;4.146;2023-10-31T15:26:11;16.10;99.90
43346;DHT22;28937;51.160;4.146;2023-10-31T15:28:40;16.10;99.90